Time;durP1;ratioP1;P1;durP2;ratioP2;P2;SDS_P1;SDS_P2;PMS_P1;PMS_P2;Temp;Humidity;BMP_temperature;BMP_pressure;BME280_temperature;BME280_humidity;BME280_pressure;Samples;Min_cycle;Max_cycle;Signal;HPM_P1;HPM_P2
2022/05/13 00:01:57;;;;;;;2.50;1.00;;;17.50;67.70;;;;;;5028890;28;20429;-76
2022/05/13 00:04:24;;;;;;;2.33;0.90;;;17.50;67.70;;;;;;5037706;28;20524;-75
2022/05/13 00:06:51;;;;;;;3.47;1.10;;;17.40;67.90;;;;;;5034944;28;20044;-75
2022/05/13 00:09:21;;;;;;;2.20;0.90;;;17.30;68.10;;;;;;5032995;28;20589;-76
2022/05/13 00:11:48;;;;;;;2.00;1.00;;;17.30;68.30;;;;;;5034601;28;20056;-76
2022/05/13 00:14:15;;;;;;;4.78;0.93;;;17.20;68.30;;;;;;5037516;28;20421;-78
2022/05/13 00:16:42;;;;;;;3.25;1.10;;;17.20;68.50;;;;;;5016074;28;20041;-77
2022/05/13 00:19:10;;;;;;;3.60;0.85;;;17.20;68.50;;;;;;5038135;28;20048;-76
2022/05/13 00:21:37;;;;;;;3.05;1.42;;;17.20;68.60;;;;;;5037487;28;20116;-76
2022/05/13 00:24:05;;;;;;;2.83;1.10;;;17.20;68.70;;;;;;5031688;28;20045;-77
2022/05/13 00:26:33;;;;;;;1.92;0.90;;;17.20;68.80;;;;;;5035627;28;20033;-76
2022/05/13 00:29:00;;;;;;;1.92;0.77;;;17.10;68.60;;;;;;5036402;28;20048;-77
2022/05/13 00:31:28;;;;;;;3.35;1.13;;;17.20;68.60;;;;;;5033351;28;20048;-75
2022/05/13 00:33:55;;;;;;;2.25;0.82;;;17.10;68.70;;;;;;5026120;28;20060;-77
2022/05/13 00:36:22;;;;;;;1.63;0.80;;;17.10;68.80;;;;;;5028265;28;20053;-76
2022/05/13 00:38:49;;;;;;;1.50;0.73;;;17.00;69.00;;;;;;5043709;28;20051;-76
2022/05/13 00:41:16;;;;;;;2.50;1.00;;;17.00;68.90;;;;;;5042250;28;20423;-78
2022/05/13 00:43:52;;;;;;;2.50;0.80;;;16.90;69.00;;;;;;5024062;28;20045;-75
2022/05/13 00:46:19;;;;;;;2.42;0.88;;;16.90;68.90;;;;;;5035076;28;20518;-77
2022/05/13 00:48:47;;;;;;;3.95;1.17;;;16.90;68.90;;;;;;5011460;28;20045;-76
2022/05/13 00:51:17;;;;;;;2.78;1.05;;;16.90;68.90;;;;;;5029040;28;20048;-76
2022/05/13 00:53:44;;;;;;;;;;;16.80;69.00;;;;;;5034457;28;20041;-75
2022/05/13 00:56:11;;;;;;;3.38;1.10;;;16.70;69.00;;;;;;5025887;28;20424;-74
2022/05/13 00:58:41;;;;;;;2.17;0.90;;;16.70;69.10;;;;;;5019954;28;20737;-75
2022/05/13 01:01:10;;;;;;;2.65;0.70;;;16.60;69.00;;;;;;5023321;28;20041;-78
2022/05/13 01:03:38;;;;;;;2.00;0.95;;;16.60;69.00;;;;;;5024268;28;20049;-76
2022/05/13 01:06:08;;;;;;;2.67;0.90;;;16.60;69.00;;;;;;5024870;28;20108;-75
2022/05/13 01:08:37;;;;;;;1.80;0.80;;;16.60;69.00;;;;;;5043899;28;20033;-76
2022/05/13 01:11:09;;;;;;;1.90;0.70;;;16.60;69.10;;;;;;5035705;28;20061;-76
2022/05/13 01:13:38;;;;;;;5.45;0.93;;;16.50;69.10;;;;;;5034329;28;20044;-76
2022/05/13 01:16:05;;;;;;;2.08;0.90;;;16.50;69.10;;;;;;5042895;28;20433;-75
2022/05/13 01:18:35;;;;;;;2.33;0.85;;;16.40;69.20;;;;;;5039011;28;20051;-76
2022/05/13 01:21:03;;;;;;;1.55;0.68;;;16.30;69.20;;;;;;5044503;28;20049;-75
2022/05/13 01:23:33;;;;;;;3.33;1.10;;;16.30;69.30;;;;;;5042183;28;20057;-75
2022/05/13 01:26:03;;;;;;;2.08;0.93;;;16.30;69.50;;;;;;5042372;28;20049;-73
2022/05/13 01:28:32;;;;;;;2.60;1.17;;;16.30;69.60;;;;;;5043106;28;20545;-78
2022/05/13 01:31:01;;;;;;;3.80;1.10;;;16.20;69.60;;;;;;5039867;28;20052;-76
2022/05/13 01:33:29;;;;;;;1.88;0.80;;;16.20;69.80;;;;;;5046480;28;21062;-75
2022/05/13 01:35:58;;;;;;;3.58;1.08;;;16.20;69.70;;;;;;5064296;28;20044;-76
2022/05/13 01:38:26;;;;;;;3.42;0.90;;;16.20;69.70;;;;;;5067265;28;20045;-77
2022/05/13 01:40:55;;;;;;;3.28;1.10;;;16.10;69.90;;;;;;5078118;28;20045;-73
2022/05/13 01:43:23;;;;;;;2.58;0.90;;;16.10;69.90;;;;;;5059911;28;20068;-76
2022/05/13 01:45:51;;;;;;;1.98;1.00;;;16.10;69.90;;;;;;5051631;28;20715;-78
2022/05/13 01:48:18;;;;;;;1.38;0.90;;;16.00;70.10;;;;;;5051171;28;20102;-77
2022/05/13 01:50:45;;;;;;;2.47;1.17;;;15.90;70.00;;;;;;5051375;28;20037;-77
2022/05/13 01:53:12;;;;;;;2.15;1.00;;;15.90;70.00;;;;;;5057330;28;20036;-75
2022/05/13 01:55:42;;;;;;;2.75;1.40;;;15.80;70.00;;;;;;5056570;28;20511;-73
2022/05/13 01:58:11;;;;;;;2.55;0.98;;;15.90;69.90;;;;;;5066023;28;20048;-76
2022/05/13 02:00:38;;;;;;;2.33;1.10;;;15.80;69.80;;;;;;5067816;28;20036;-77
2022/05/13 02:05:50;;;;;;;1.80;0.93;;;15.80;69.60;;;;;;5069613;28;20040;-75
2022/05/13 02:08:17;;;;;;;4.28;1.10;;;15.80;69.60;;;;;;5075918;28;20127;-76
2022/05/13 02:10:44;;;;;;;4.32;1.13;;;15.70;69.60;;;;;;5076905;28;20076;-76
2022/05/13 02:13:14;;;;;;;2.80;1.55;;;15.70;69.70;;;;;;5065737;28;20049;-76
2022/05/13 02:15:41;;;;;;;3.20;1.00;;;15.60;69.60;;;;;;5069142;28;20033;-77
2022/05/13 02:18:09;;;;;;;2.17;1.00;;;15.60;69.70;;;;;;5072029;28;20140;-77
2022/05/13 02:20:37;;;;;;;4.47;1.25;;;15.60;69.90;;;;;;5038210;28;20045;-76
2022/05/13 02:23:04;;;;;;;4.00;0.95;;;15.60;69.90;;;;;;5051701;28;20044;-75
2022/05/13 02:25:31;;;;;;;6.00;1.30;;;15.50;70.10;;;;;;5054096;28;20048;-77
2022/05/13 02:27:58;;;;;;;3.17;1.30;;;15.50;70.10;;;;;;5050941;28;20056;-76
2022/05/13 02:30:28;;;;;;;4.30;1.20;;;15.50;70.40;;;;;;5041802;28;20718;-75
2022/05/13 02:32:56;;;;;;;2.08;0.93;;;15.40;70.60;;;;;;5050111;28;20687;-77
2022/05/13 02:35:23;;;;;;;6.50;1.77;;;15.40;71.00;;;;;;5047366;28;20678;-79
2022/05/13 02:37:50;;;;;;;3.25;1.02;;;15.40;70.90;;;;;;5065227;28;20058;-78
2022/05/13 02:40:18;;;;;;;4.35;1.05;;;15.40;70.90;;;;;;5066065;28;20504;-75
2022/05/13 02:42:45;;;;;;;4.05;1.38;;;15.30;70.80;;;;;;5066194;28;20040;-76
2022/05/13 02:45:13;;;;;;;4.30;1.60;;;15.20;70.80;;;;;;5069534;28;20689;-77
2022/05/13 02:47:42;;;;;;;2.45;1.13;;;15.20;70.70;;;;;;5061076;28;20097;-77
2022/05/13 02:50:20;;;;;;;3.92;1.27;;;15.20;70.60;;;;;;5073277;28;20068;-77
2022/05/13 02:52:50;;;;;;;3.40;1.20;;;15.20;70.60;;;;;;5066262;28;20490;-76
2022/05/13 02:55:19;;;;;;;2.38;1.23;;;15.20;70.70;;;;;;5070927;28;20052;-77
2022/05/13 02:57:46;;;;;;;3.83;1.07;;;15.10;70.60;;;;;;5075043;28;20049;-76
2022/05/13 03:00:15;;;;;;;2.97;1.13;;;15.10;70.70;;;;;;5038614;28;20472;-77
2022/05/13 03:02:44;;;;;;;2.85;1.02;;;15.10;70.60;;;;;;5050751;28;20044;-77
2022/05/13 03:05:12;;;;;;;5.27;1.30;;;15.10;70.50;;;;;;5055140;28;20111;-77
2022/05/13 03:07:39;;;;;;;4.45;1.30;;;15.10;70.60;;;;;;5062321;28;20044;-77
2022/05/13 03:10:08;;;;;;;2.63;1.45;;;15.10;70.50;;;;;;5056332;28;20517;-77
2022/05/13 03:12:35;;;;;;;2.25;1.05;;;15.00;70.50;;;;;;5049624;28;20578;-78
2022/05/13 03:15:02;;;;;;;3.78;1.23;;;15.00;70.60;;;;;;5063613;28;20472;-78
2022/05/13 03:17:29;;;;;;;3.13;1.52;;;15.00;70.70;;;;;;5066196;28;20048;-77
2022/05/13 03:19:58;;;;;;;1.77;1.30;;;14.90;70.80;;;;;;5066382;28;20044;-76
2022/05/13 03:22:25;;;;;;;3.65;1.20;;;15.00;71.10;;;;;;5065931;28;20052;-77
2022/05/13 03:24:52;;;;;;;5.75;1.10;;;15.00;71.00;;;;;;5056293;28;20068;-78
2022/05/13 03:27:19;;;;;;;2.80;1.48;;;14.90;70.90;;;;;;5066875;28;20067;-77
2022/05/13 03:29:46;;;;;;;2.60;1.50;;;14.90;71.00;;;;;;5072581;28;20044;-75
2022/05/13 03:32:12;;;;;;;2.63;1.08;;;14.90;70.90;;;;;;5069060;28;20482;-78
2022/05/13 03:34:39;;;;;;;2.83;1.50;;;14.80;71.00;;;;;;5076992;28;20087;-78
2022/05/13 03:37:08;;;;;;;2.13;1.15;;;14.80;71.10;;;;;;5069610;28;20087;-79
2022/05/13 03:39:35;;;;;;;2.97;1.40;;;14.80;71.00;;;;;;5070958;28;20049;-77
2022/05/13 03:42:02;;;;;;;3.35;1.40;;;14.80;71.00;;;;;;5067974;28;20051;-77
2022/05/13 03:44:31;;;;;;;3.38;1.02;;;14.70;71.20;;;;;;5065324;28;20049;-76
2022/05/13 03:46:59;;;;;;;4.45;1.90;;;14.80;71.20;;;;;;5033377;28;20546;-78
2022/05/13 03:49:27;;;;;;;2.20;1.30;;;14.70;71.30;;;;;;5068236;28;20103;-78
2022/05/13 03:51:54;;;;;;;5.43;1.30;;;14.70;71.20;;;;;;5074079;28;20041;-77
2022/05/13 03:54:22;;;;;;;5.70;1.40;;;14.80;71.10;;;;;;5077356;28;20041;-77
2022/05/13 03:56:49;;;;;;;3.22;1.55;;;14.70;71.10;;;;;;5064813;28;20037;-78
2022/05/13 03:59:16;;;;;;;3.65;1.65;;;14.80;71.10;;;;;;5072654;28;20048;-77
2022/05/13 04:01:43;;;;;;;2.50;1.30;;;14.70;71.20;;;;;;5049368;28;20187;-78
2022/05/13 04:04:10;;;;;;;3.95;1.35;;;14.80;71.30;;;;;;5056953;28;20040;-78
2022/05/13 04:09:24;;;;;;;4.13;1.50;;;14.70;71.50;;;;;;5069607;28;20048;-75
2022/05/13 04:17:16;;;;;;;4.65;2.00;;;14.70;71.20;;;;;;5048078;28;20049;-78
2022/05/13 04:19:44;;;;;;;4.13;1.80;;;14.60;71.20;;;;;;5046475;28;20493;-76
2022/05/13 04:22:13;;;;;;;4.47;1.90;;;14.60;71.30;;;;;;5048518;28;20043;-76
2022/05/13 04:24:41;;;;;;;4.93;2.13;;;14.60;71.20;;;;;;5041599;28;20047;-75
2022/05/13 04:27:09;;;;;;;5.80;1.90;;;14.60;71.20;;;;;;5047214;28;20869;-75
2022/05/13 04:29:37;;;;;;;3.97;2.05;;;14.60;71.10;;;;;;5041898;28;20062;-74
2022/05/13 04:32:05;;;;;;;2.85;1.65;;;14.50;71.20;;;;;;5064115;28;20048;-75
2022/05/13 04:34:32;;;;;;;6.78;2.35;;;14.60;71.40;;;;;;5055438;28;20072;-76
2022/05/13 04:36:59;;;;;;;4.53;1.90;;;14.60;71.40;;;;;;5058899;28;20113;-76
2022/05/13 04:39:26;;;;;;;5.97;2.03;;;14.60;71.40;;;;;;5056627;28;20044;-77
2022/05/13 04:44:53;;;;;;;4.97;1.75;;;14.60;71.50;;;;;;4941661;28;20734;-77
2022/05/13 04:50:05;;;;;;;3.42;1.63;;;14.60;71.30;;;;;;5006584;28;21333;-76
2022/05/13 04:52:32;;;;;;;2.45;1.45;;;14.70;71.00;;;;;;5049172;28;20041;-76
2022/05/13 04:54:59;;;;;;;4.15;1.75;;;14.70;71.00;;;;;;5045623;28;20045;-75
2022/05/13 04:57:28;;;;;;;3.92;1.80;;;14.60;71.10;;;;;;5049778;28;20045;-77
2022/05/13 04:59:55;;;;;;;2.70;1.40;;;14.60;71.00;;;;;;5053785;28;20032;-77
2022/05/13 05:02:22;;;;;;;4.00;1.50;;;14.60;71.10;;;;;;5048423;28;20041;-78
2022/05/13 05:04:49;;;;;;;3.25;1.67;;;14.60;71.30;;;;;;5069373;28;20047;-77
2022/05/13 05:07:15;;;;;;;5.20;2.00;;;14.60;71.30;;;;;;5062083;28;20051;-77
2022/05/13 05:09:42;;;;;;;3.83;1.67;;;14.70;71.40;;;;;;5063662;28;20131;-77
2022/05/13 05:12:10;;;;;;;4.25;1.52;;;14.70;71.50;;;;;;5061865;28;20080;-78
2022/05/13 05:14:39;;;;;;;4.60;1.85;;;14.70;71.30;;;;;;5062021;28;20519;-76
2022/05/13 05:17:06;;;;;;;3.45;1.48;;;14.80;71.20;;;;;;5064446;28;20041;-76
2022/05/13 05:19:33;;;;;;;4.22;2.20;;;14.80;71.30;;;;;;5066460;28;20141;-76
2022/05/13 05:22:00;;;;;;;5.20;2.05;;;14.90;71.40;;;;;;5043722;28;20044;-77
2022/05/13 05:24:27;;;;;;;3.50;2.08;;;14.90;71.30;;;;;;5063478;28;20043;-76
2022/05/13 05:26:53;;;;;;;3.55;1.90;;;15.00;71.30;;;;;;5064038;28;20068;-76
2022/05/13 05:29:20;;;;;;;6.00;1.88;;;15.00;70.90;;;;;;5072144;28;20048;-77
2022/05/13 05:31:49;;;;;;;4.35;1.90;;;15.00;71.10;;;;;;5067205;28;20125;-77
2022/05/13 05:34:17;;;;;;;2.25;1.40;;;15.00;71.20;;;;;;5070111;28;20056;-77
2022/05/13 05:36:44;;;;;;;3.30;1.55;;;15.10;71.30;;;;;;5071423;28;20133;-76
2022/05/13 05:39:12;;;;;;;3.45;1.73;;;15.10;71.10;;;;;;5064302;28;20052;-76
2022/05/13 05:41:39;;;;;;;3.28;1.75;;;15.10;71.20;;;;;;5065774;28;20044;-77
2022/05/13 05:44:05;;;;;;;5.57;2.40;;;15.20;71.10;;;;;;5059754;28;20039;-77
2022/05/13 05:46:32;;;;;;;2.63;1.67;;;15.20;70.80;;;;;;5063794;28;20048;-75
2022/05/13 05:49:02;;;;;;;4.63;1.75;;;15.20;70.80;;;;;;5064489;28;20035;-78
2022/05/13 05:51:29;;;;;;;4.17;1.67;;;15.30;70.80;;;;;;5062466;28;20048;-74
2022/05/13 05:59:25;;;;;;;3.47;1.60;;;15.30;70.60;;;;;;5067253;28;20048;-77
2022/05/13 06:01:52;;;;;;;5.97;2.00;;;15.30;70.60;;;;;;5061442;28;20134;-77
2022/05/13 06:04:21;;;;;;;3.40;1.98;;;15.30;70.60;;;;;;5069586;28;20040;-76
2022/05/13 06:06:48;;;;;;;4.70;2.50;;;15.30;70.90;;;;;;5069977;28;20116;-77
2022/05/13 06:09:15;;;;;;;5.18;2.38;;;15.40;70.70;;;;;;5067690;28;20050;-76
2022/05/13 06:11:43;;;;;;;6.25;2.60;;;15.40;70.60;;;;;;5066849;28;20048;-75
2022/05/13 06:14:10;;;;;;;6.15;2.70;;;15.40;70.50;;;;;;5060607;28;20037;-76
2022/05/13 06:16:38;;;;;;;4.25;2.22;;;15.40;70.30;;;;;;5062353;28;20850;-76
2022/05/13 06:19:05;;;;;;;4.60;2.30;;;15.50;70.40;;;;;;5064491;28;20053;-75
2022/05/13 06:21:37;;;;;;;7.25;2.70;;;15.60;70.50;;;;;;5059131;28;20094;-77
2022/05/13 06:24:05;;;;;;;7.30;2.38;;;15.60;70.40;;;;;;5062282;28;20052;-75
2022/05/13 06:26:32;;;;;;;5.30;2.40;;;15.70;70.20;;;;;;5060556;28;20040;-76
2022/05/13 06:29:02;;;;;;;4.85;2.53;;;15.70;70.00;;;;;;5064594;28;20053;-76
2022/05/13 06:31:29;;;;;;;5.38;2.22;;;15.80;69.90;;;;;;5063129;28;20044;-75
2022/05/13 06:33:56;;;;;;;5.75;1.98;;;15.80;69.70;;;;;;5065227;28;20055;-78
2022/05/13 06:36:23;;;;;;;5.00;2.03;;;15.90;69.50;;;;;;5069288;28;20127;-76
2022/05/13 06:38:52;;;;;;;6.63;2.17;;;16.00;69.50;;;;;;5066387;28;20041;-77
2022/05/13 06:41:19;;;;;;;3.38;1.85;;;16.10;69.50;;;;;;5067941;28;20119;-76
2022/05/13 06:43:46;;;;;;;4.57;1.98;;;16.20;69.30;;;;;;5065328;28;20405;-76
2022/05/13 06:46:13;;;;;;;8.32;2.00;;;16.40;69.20;;;;;;5069576;28;20037;-77
2022/05/13 06:48:40;;;;;;;3.63;1.58;;;16.50;68.70;;;;;;5067524;28;20036;-76
2022/05/13 06:51:07;;;;;;;3.63;1.70;;;16.70;68.50;;;;;;5071906;28;20048;-77
2022/05/13 06:53:34;;;;;;;3.92;1.90;;;16.90;67.50;;;;;;5069373;28;20068;-77
2022/05/13 06:56:02;;;;;;;6.15;1.75;;;17.10;67.00;;;;;;5065082;28;20040;-76
2022/05/13 06:58:29;;;;;;;3.92;1.50;;;17.20;66.50;;;;;;5063207;28;20072;-77
2022/05/13 07:00:56;;;;;;;4.35;1.50;;;17.30;65.80;;;;;;5058956;28;20057;-78
2022/05/13 07:03:23;;;;;;;4.03;1.75;;;17.40;65.30;;;;;;5063276;28;20052;-77
2022/05/13 07:05:50;;;;;;;4.03;1.65;;;17.50;64.80;;;;;;5068253;28;20505;-77
2022/05/13 07:08:17;;;;;;;4.90;1.30;;;17.60;64.90;;;;;;5067553;28;20140;-76
2022/05/13 07:10:45;;;;;;;5.57;1.52;;;17.80;64.00;;;;;;5070024;28;20410;-77
2022/05/13 07:13:15;;;;;;;5.10;1.17;;;18.10;63.50;;;;;;5068238;28;20066;-78
2022/05/13 07:15:43;;;;;;;;;;;18.30;62.80;;;;;;5067843;28;20053;-76
2022/05/13 07:18:10;;;;;;;3.03;0.80;;;18.60;61.30;;;;;;5067058;28;19927;-76
2022/05/13 07:20:37;;;;;;;4.38;1.15;;;18.70;60.80;;;;;;5059571;28;20473;-76
2022/05/13 07:23:05;;;;;;;3.53;1.10;;;18.90;58.90;;;;;;5062115;28;20068;-75
2022/05/13 07:25:32;;;;;;;1.85;0.70;;;18.90;58.50;;;;;;5063854;28;20047;-76
2022/05/13 07:27:59;;;;;;;2.90;0.80;;;19.00;58.90;;;;;;5062839;28;20048;-77
2022/05/13 07:30:27;;;;;;;5.72;0.88;;;19.00;58.10;;;;;;5063561;28;20046;-74
2022/05/13 07:32:55;;;;;;;3.08;0.75;;;19.10;57.10;;;;;;5061249;28;20070;-74
2022/05/13 07:35:22;;;;;;;4.13;1.38;;;19.10;56.30;;;;;;5055749;28;20560;-76
2022/05/13 07:37:49;;;;;;;5.10;0.90;;;19.20;54.80;;;;;;5059431;28;20041;-74
2022/05/13 07:43:03;;;;;;;5.60;1.00;;;19.50;56.30;;;;;;5064708;28;20064;-77
2022/05/13 07:45:33;;;;;;;3.92;0.82;;;19.60;54.70;;;;;;5069376;28;20044;-73
2022/05/13 07:48:01;;;;;;;2.80;0.93;;;19.60;54.30;;;;;;5064336;28;20119;-76
2022/05/13 07:50:29;;;;;;;4.18;0.98;;;19.60;54.80;;;;;;5065495;28;20391;-73
2022/05/13 07:52:56;;;;;;;1.23;0.43;;;19.70;54.90;;;;;;5067911;28;20552;-75
2022/05/13 07:55:23;;;;;;;6.07;1.13;;;19.70;54.90;;;;;;5064179;28;20040;-76
2022/05/13 07:57:50;;;;;;;8.38;0.93;;;19.90;54.20;;;;;;5064212;28;20123;-75
2022/05/13 08:00:26;;;;;;;3.35;1.13;;;19.90;53.80;;;;;;5063936;28;20072;-75
2022/05/13 08:02:56;;;;;;;2.80;0.63;;;19.90;53.30;;;;;;5066629;28;20489;-77
2022/05/13 08:05:23;;;;;;;3.45;1.10;;;20.10;53.30;;;;;;5065511;28;20048;-77
2022/05/13 08:07:59;;;;;;;3.72;0.90;;;20.20;52.80;;;;;;5063889;28;20047;-78
2022/05/13 08:10:26;;;;;;;3.10;0.82;;;20.40;52.80;;;;;;5067217;28;20526;-76
2022/05/13 08:12:53;;;;;;;4.18;0.90;;;20.60;51.60;;;;;;5067440;28;20040;-76
2022/05/13 08:15:21;;;;;;;8.43;1.20;;;20.70;51.00;;;;;;5060160;28;20040;-77
2022/05/13 08:17:48;;;;;;;6.25;1.10;;;20.60;50.30;;;;;;5064629;28;20128;-78
2022/05/13 08:20:16;;;;;;;3.85;0.90;;;20.60;50.20;;;;;;5061504;28;20066;-79
2022/05/13 08:22:45;;;;;;;3.72;1.00;;;20.50;50.40;;;;;;5059145;28;20040;-74
2022/05/13 08:25:12;;;;;;;3.22;0.90;;;20.40;50.50;;;;;;5061119;28;20037;-79
2022/05/13 08:27:39;;;;;;;6.13;0.80;;;20.30;51.20;;;;;;5059670;28;20067;-79
2022/05/13 08:30:07;;;;;;;4.20;0.85;;;20.30;51.50;;;;;;5060123;28;20083;-78
2022/05/13 08:32:35;;;;;;;1.73;0.70;;;20.40;52.00;;;;;;5062834;28;20102;-78
2022/05/13 08:35:04;;;;;;;3.15;1.08;;;20.60;51.50;;;;;;5060725;28;20602;-77
2022/05/13 08:37:32;;;;;;;3.22;0.90;;;20.70;50.80;;;;;;5064614;28;20067;-78
2022/05/13 08:40:00;;;;;;;3.85;0.70;;;20.70;50.80;;;;;;5067712;28;20040;-79
2022/05/13 08:42:36;;;;;;;2.85;0.52;;;20.80;50.70;;;;;;5064312;28;20123;-78
2022/05/13 08:45:04;;;;;;;4.75;0.60;;;20.80;50.10;;;;;;5063991;28;20387;-77
2022/05/13 08:47:40;;;;;;;6.78;1.00;;;20.90;50.30;;;;;;5067055;28;20040;-78
2022/05/13 08:50:10;;;;;;;3.05;0.65;;;21.10;50.10;;;;;;5052834;28;22023;-80
2022/05/13 08:55:35;;;;;;;8.27;1.02;;;21.10;49.20;;;;;;5061924;28;20119;-79
2022/05/13 08:58:04;;;;;;;5.68;0.82;;;21.10;49.90;;;;;;5060390;28;20045;-78
2022/05/13 09:00:35;;;;;;;2.92;0.55;;;21.30;49.30;;;;;;5057140;28;20047;-77
2022/05/13 09:03:12;;;;;;;1.33;0.50;;;21.20;48.60;;;;;;5061238;28;20039;-76
2022/05/13 09:05:45;;;;;;;4.57;1.02;;;21.00;47.60;;;;;;5060293;28;20047;-78
2022/05/13 09:08:14;;;;;;;3.15;0.60;;;21.00;47.80;;;;;;5061467;28;20176;-77
2022/05/13 09:10:54;;;;;;;5.93;0.70;;;20.90;48.90;;;;;;5058565;28;20036;-75
2022/05/13 09:13:27;;;;;;;2.78;0.57;;;21.00;47.90;;;;;;5059279;28;20128;-78
2022/05/13 09:15:56;;;;;;;2.80;0.60;;;21.10;47.60;;;;;;5044321;28;20438;-77
2022/05/13 09:18:32;;;;;;;3.63;1.33;;;21.20;46.40;;;;;;5061072;28;20040;-76
2022/05/13 09:21:02;;;;;;;3.85;0.70;;;21.20;46.70;;;;;;5060404;28;20458;-75
2022/05/13 09:23:31;;;;;;;2.53;0.70;;;21.20;46.40;;;;;;5058830;28;20051;-76
2022/05/13 09:26:04;;;;;;;7.18;0.68;;;21.10;46.00;;;;;;5057888;28;20140;-78
2022/05/13 09:28:35;;;;;;;2.53;0.70;;;21.20;45.30;;;;;;5058296;28;20048;-79
2022/05/13 09:31:17;;;;;;;5.18;0.82;;;21.20;45.40;;;;;;5057270;28;20033;-78
2022/05/13 09:33:46;;;;;;;3.33;0.70;;;21.20;45.00;;;;;;5055223;28;20048;-78
2022/05/13 09:36:32;;;;;;;4.45;0.73;;;21.20;44.60;;;;;;5058796;28;20044;-78
2022/05/13 09:39:16;;;;;;;2.25;0.70;;;21.20;44.40;;;;;;5060516;28;20465;-78
2022/05/13 09:41:43;;;;;;;4.00;1.05;;;21.30;44.50;;;;;;5060305;28;20040;-78
2022/05/13 09:44:12;;;;;;;4.03;0.80;;;21.40;45.20;;;;;;5060137;28;20522;-77
2022/05/13 09:46:41;;;;;;;1.35;0.68;;;21.60;43.90;;;;;;5060464;28;20068;-79
2022/05/13 09:49:14;;;;;;;2.53;1.13;;;21.60;43.00;;;;;;5066548;28;20045;-77
2022/05/13 09:51:54;;;;;;;3.08;0.70;;;21.60;43.40;;;;;;5064610;28;20041;-77
2022/05/13 09:54:26;;;;;;;2.03;0.43;;;21.70;42.80;;;;;;5067054;28;20037;-78
2022/05/13 09:57:07;;;;;;;2.63;0.50;;;21.70;43.70;;;;;;5065791;28;20136;-76
2022/05/13 09:59:40;;;;;;;2.10;0.73;;;21.80;43.00;;;;;;5071117;28;20049;-80
2022/05/13 10:02:20;;;;;;;3.83;1.00;;;21.90;42.90;;;;;;5066349;28;20055;-80
2022/05/13 10:04:51;;;;;;;3.30;0.65;;;22.10;40.60;;;;;;5053960;28;20052;-77
2022/05/13 10:07:19;;;;;;;5.25;0.63;;;22.00;41.50;;;;;;5068792;28;20055;-80
2022/05/13 10:15:31;;;;;;;3.75;0.95;;;21.90;42.00;;;;;;5070385;28;20070;-80
2022/05/13 10:18:06;;;;;;;2.83;0.70;;;22.00;41.80;;;;;;5068371;28;20497;-80
2022/05/13 10:20:37;;;;;;;3.55;1.15;;;22.10;41.60;;;;;;5066274;28;20044;-80
2022/05/13 10:23:16;;;;;;;3.08;0.75;;;22.10;41.80;;;;;;5065080;28;20043;-79
2022/05/13 10:25:56;;;;;;;0.65;0.40;;;22.10;41.30;;;;;;5063299;28;20127;-81
2022/05/13 10:28:30;;;;;;;6.13;1.10;;;22.20;42.40;;;;;;5064720;28;20166;-79
2022/05/13 10:31:03;;;;;;;5.22;1.00;;;22.20;42.00;;;;;;5065317;28;20055;-79
2022/05/13 10:33:36;;;;;;;6.13;1.08;;;22.30;42.10;;;;;;5059874;28;20495;-80
2022/05/13 10:36:09;;;;;;;2.72;1.10;;;22.40;41.90;;;;;;5041790;28;20064;-81
2022/05/13 10:38:42;;;;;;;1.60;0.65;;;22.40;41.70;;;;;;5042601;28;20059;-80
2022/05/13 10:41:31;;;;;;;4.32;0.95;;;22.50;42.50;;;;;;5042788;28;20502;-82
2022/05/13 10:44:02;;;;;;;4.35;1.02;;;22.50;42.20;;;;;;5045968;28;20056;-80
2022/05/13 10:46:38;;;;;;;2.95;0.70;;;22.60;42.20;;;;;;5048593;28;20052;-80
2022/05/13 10:49:05;;;;;;;3.70;0.82;;;22.60;42.70;;;;;;5047772;28;20121;-77
2022/05/13 10:51:39;;;;;;;4.97;0.60;;;22.60;42.70;;;;;;5050325;28;20056;-80
2022/05/13 10:54:20;;;;;;;4.25;0.90;;;22.70;42.60;;;;;;5049335;28;20131;-79
2022/05/13 10:56:54;;;;;;;1.92;0.68;;;22.70;41.90;;;;;;5047662;28;20478;-81
2022/05/13 10:59:33;;;;;;;2.72;0.85;;;22.60;42.30;;;;;;5046127;28;20045;-80
2022/05/13 11:02:09;;;;;;;2.53;0.98;;;22.60;42.00;;;;;;5043749;28;20051;-75
2022/05/13 11:04:42;;;;;;;4.30;1.15;;;22.60;42.40;;;;;;5047062;28;20048;-77
2022/05/13 11:07:18;;;;;;;3.75;0.90;;;22.50;42.40;;;;;;5046348;28;20041;-77
2022/05/13 11:09:50;;;;;;;2.88;0.75;;;22.50;42.40;;;;;;5047708;28;20053;-78
2022/05/13 11:12:33;;;;;;;2.65;0.80;;;22.50;41.10;;;;;;5046676;28;20049;-80
2022/05/13 11:15:12;;;;;;;5.50;0.80;;;22.40;42.20;;;;;;5045405;28;20037;-80
2022/05/13 11:17:44;;;;;;;;;;;22.50;42.30;;;;;;5046079;28;20041;-81
2022/05/13 11:20:19;;;;;;;3.58;0.90;;;22.50;41.20;;;;;;5043000;28;19924;-79
2022/05/13 11:22:54;;;;;;;2.28;0.73;;;22.60;42.40;;;;;;5050564;28;20499;-83
2022/05/13 11:28:45;;;;;;;3.78;0.85;;;22.60;42.60;;;;;;5048739;28;20049;-80
2022/05/13 11:31:33;;;;;;;3.13;0.63;;;22.60;41.50;;;;;;5030322;28;20045;-80
2022/05/13 11:34:11;;;;;;;3.28;0.80;;;22.60;41.80;;;;;;5057305;28;20041;-82
2022/05/13 11:36:45;;;;;;;2.15;0.73;;;22.70;41.10;;;;;;5071201;28;20087;-82
2022/05/13 11:39:39;;;;;;;2.28;0.73;;;22.60;41.90;;;;;;5061715;28;20037;-80
2022/05/13 11:42:22;;;;;;;1.58;0.70;;;22.70;42.00;;;;;;5064096;28;20048;-83
2022/05/13 11:45:09;;;;;;;3.08;1.30;;;22.80;41.80;;;;;;5063185;28;20078;-80
2022/05/13 11:47:48;;;;;;;4.88;0.98;;;22.80;41.40;;;;;;5061114;28;20041;-80
2022/05/13 11:50:17;;;;;;;;;;;22.80;41.10;;;;;;5062846;28;20813;-84
2022/05/13 11:52:47;;;;;;;2.17;0.70;;;22.80;41.30;;;;;;5060887;28;19920;-80
2022/05/13 11:55:18;;;;;;;4.15;0.77;;;22.80;40.50;;;;;;5061059;28;20060;-82
2022/05/13 11:57:48;;;;;;;1.73;0.63;;;22.70;40.20;;;;;;5057802;28;20065;-82
2022/05/13 12:00:37;;;;;;;3.50;0.60;;;22.70;41.00;;;;;;5062166;28;20059;-81
2022/05/13 12:03:15;;;;;;;5.07;0.65;;;22.80;40.90;;;;;;5068562;28;20132;-81
2022/05/13 12:06:07;;;;;;;3.80;0.70;;;22.60;41.20;;;;;;5063384;28;20040;-81
2022/05/13 12:08:42;;;;;;;3.00;0.90;;;22.70;41.30;;;;;;5059381;28;20547;-82
2022/05/13 12:11:37;;;;;;;3.90;0.85;;;22.70;40.90;;;;;;5064698;28;20068;-79
2022/05/13 12:14:13;;;;;;;1.60;0.60;;;22.70;40.30;;;;;;5069229;28;20040;-80
2022/05/13 12:16:49;;;;;;;10.68;1.40;;;22.80;41.00;;;;;;5065712;28;20032;-79
2022/05/13 12:19:32;;;;;;;4.82;1.08;;;22.80;41.50;;;;;;5067946;28;20029;-78
2022/05/13 12:22:05;;;;;;;4.15;0.80;;;22.80;41.60;;;;;;5069117;28;20152;-84
2022/05/13 12:24:56;;;;;;;5.95;1.13;;;22.90;41.40;;;;;;5066460;28;20044;-82
2022/05/13 12:27:35;;;;;;;1.73;0.60;;;22.90;40.90;;;;;;5069509;28;20072;-82
2022/05/13 12:30:20;;;;;;;2.20;0.75;;;22.80;40.60;;;;;;5069135;28;20036;-79
2022/05/13 12:32:50;;;;;;;3.45;0.70;;;22.80;40.50;;;;;;5047209;28;20114;-77
2022/05/13 12:38:16;;;;;;;5.28;0.60;;;22.60;39.10;;;;;;5063155;28;20128;-76
2022/05/13 12:41:09;;;;;;;5.15;0.73;;;22.50;39.70;;;;;;5067768;28;20136;-78
2022/05/13 12:43:55;;;;;;;4.20;0.60;;;22.50;40.40;;;;;;5068363;28;20044;-77
2022/05/13 12:46:41;;;;;;;3.80;0.70;;;22.50;41.00;;;;;;5068908;28;20044;-76
2022/05/13 12:49:13;;;;;;;2.90;0.60;;;22.60;41.30;;;;;;5066882;28;20052;-76
2022/05/13 12:51:45;;;;;;;3.47;0.85;;;22.70;41.30;;;;;;5068780;28;20040;-78
2022/05/13 12:54:16;;;;;;;3.33;0.77;;;22.70;40.80;;;;;;5051149;28;20075;-74
2022/05/13 12:56:47;;;;;;;3.13;0.88;;;22.70;41.10;;;;;;5068324;28;20037;-77
2022/05/13 12:59:17;;;;;;;1.15;0.43;;;22.80;41.30;;;;;;5069628;28;20588;-76
2022/05/13 13:01:48;;;;;;;2.88;0.57;;;22.80;41.20;;;;;;5065697;28;20467;-77
2022/05/13 13:04:22;;;;;;;6.45;0.98;;;22.80;41.00;;;;;;5068372;28;20086;-77
2022/05/13 13:06:50;;;;;;;2.10;0.60;;;22.80;41.20;;;;;;5068198;28;20060;-77
2022/05/13 13:09:22;;;;;;;3.92;0.70;;;22.80;41.10;;;;;;5069561;28;20045;-80
2022/05/13 13:12:05;;;;;;;4.05;0.65;;;22.80;41.30;;;;;;5069642;28;20049;-78
2022/05/13 13:14:41;;;;;;;4.70;0.95;;;22.80;41.30;;;;;;5070067;28;20043;-79
2022/05/13 13:17:19;;;;;;;3.00;0.70;;;22.70;40.00;;;;;;5064922;28;20032;-77
2022/05/13 13:19:49;;;;;;;3.03;0.50;;;22.50;39.50;;;;;;5068822;28;20482;-78
2022/05/13 13:22:20;;;;;;;1.48;0.50;;;22.40;40.10;;;;;;5069199;28;20055;-79
2022/05/13 13:24:47;;;;;;;2.75;1.08;;;22.40;40.40;;;;;;5069002;28;20036;-77
2022/05/13 13:27:17;;;;;;;2.47;0.40;;;22.50;40.70;;;;;;5067232;28;20080;-79
2022/05/13 13:29:45;;;;;;;;;;;22.50;40.40;;;;;;5069545;28;20483;-77
2022/05/13 13:32:14;;;;;;;2.05;0.50;;;22.50;40.10;;;;;;5064820;28;20254;-78
2022/05/13 13:34:52;;;;;;;5.15;0.70;;;22.50;41.10;;;;;;5071207;28;20056;-79
2022/05/13 13:37:22;;;;;;;3.08;0.68;;;22.50;40.50;;;;;;5071698;28;20129;-77
2022/05/13 13:39:49;;;;;;;3.20;0.40;;;22.60;41.00;;;;;;5070049;28;20036;-79
2022/05/13 13:42:18;;;;;;;2.38;0.30;;;22.60;40.10;;;;;;5071574;28;20048;-80
2022/05/13 13:44:47;;;;;;;1.48;0.40;;;22.50;40.00;;;;;;5070052;28;20115;-77